createdAt,value
2023-04-22T08:32:37.616Z,21.15
2023-04-22T08:35:05.612Z,22.17
2023-04-22T08:37:32.648Z,22.75
2023-04-22T08:39:59.514Z,23.06
2023-04-22T08:42:27.558Z,23.04
2023-04-22T08:44:54.915Z,23.52
2023-04-22T08:47:22.112Z,23.98
2023-04-22T08:49:51.349Z,24.24
2023-04-22T08:52:18.633Z,23.88
2023-04-22T08:54:45.538Z,23.44
2023-04-22T08:57:12.593Z,23.83
2023-04-22T08:59:40.641Z,23.93
2023-04-22T09:02:08.909Z,23.86
2023-04-22T09:04:36.574Z,23.25
2023-04-22T09:07:04.191Z,23.88
2023-04-22T09:09:32.308Z,24.68
2023-04-22T09:11:59.180Z,25.01
2023-04-22T09:14:26.952Z,24.84
2023-04-22T09:16:53.937Z,24.80
2023-04-22T09:19:24.217Z,24.53
2023-04-22T09:21:53.695Z,24.96
2023-04-22T09:24:21.238Z,25.48
2023-04-22T09:26:48.090Z,25.67
2023-04-22T09:29:16.037Z,25.95
2023-04-22T09:31:43.091Z,26.28
2023-04-22T09:34:09.952Z,26.46
2023-04-22T09:36:39.695Z,26.15
2023-04-22T09:39:09.770Z,26.06
2023-04-22T09:41:38.968Z,25.85
2023-04-22T09:44:11.065Z,26.34
2023-04-22T09:46:38.003Z,26.45
2023-04-22T09:49:04.840Z,26.51
2023-04-22T09:51:32.266Z,26.90
2023-04-22T09:54:09.180Z,26.95
2023-04-22T09:56:48.611Z,26.84
2023-04-22T09:59:26.216Z,27.11
2023-04-22T10:01:55.424Z,27.58
2023-04-22T10:04:23.489Z,27.28
2023-04-22T10:06:51.305Z,27.24
2023-04-22T10:09:20.217Z,26.66
2023-04-22T10:11:48.249Z,27.24
2023-04-22T10:14:15.359Z,27.59
2023-04-22T10:16:45.436Z,27.91
2023-04-22T10:19:18.097Z,27.86
2023-04-22T10:25:21.954Z,27.12
2023-04-22T10:28:02.097Z,27.17
2023-04-22T10:30:33.971Z,27.77
2023-04-22T10:33:27.870Z,28.30
2023-04-22T10:36:20.259Z,28.06
2023-04-22T10:38:50.155Z,28.17
2023-04-22T10:41:17.462Z,28.58
2023-04-22T10:43:48.706Z,28.77
2023-04-22T10:46:30.959Z,28.34
2023-04-22T10:48:58.081Z,28.47
2023-04-22T10:51:44.472Z,28.30
2023-04-22T10:54:28.768Z,28.60
2023-04-22T10:57:14.690Z,28.94
2023-04-22T10:59:56.087Z,28.84
2023-04-22T11:02:23.968Z,29.09
2023-04-22T11:04:54.673Z,29.45
2023-04-22T11:07:31.991Z,29.30
2023-04-22T11:10:09.914Z,29.25
2023-04-22T11:12:39.464Z,29.33
2023-04-22T11:15:10.414Z,30.17
2023-04-22T11:17:38.482Z,30.65
2023-04-22T11:20:06.726Z,31.03
2023-04-22T11:22:38.604Z,31.54
2023-04-22T11:25:06.597Z,32.07
2023-04-22T11:27:34.479Z,32.10
2023-04-22T11:30:08.410Z,32.59
2023-04-22T11:32:43.412Z,32.98
2023-04-22T11:35:12.334Z,33.98
2023-04-22T11:37:49.355Z,34.40
2023-04-22T11:40:30.116Z,34.82
2023-04-22T11:43:02.567Z,34.84
2023-04-22T11:45:30.949Z,35.08
2023-04-22T11:47:58.105Z,35.84
2023-04-22T11:50:27.570Z,36.08
2023-04-22T11:52:58.763Z,35.86
2023-04-22T11:55:31.963Z,36.81
2023-04-22T11:58:17.736Z,36.23
2023-04-22T12:00:46.834Z,36.63
2023-04-22T12:03:18.074Z,36.01
2023-04-22T12:05:46.691Z,36.40
2023-04-22T12:08:18.939Z,37.11
2023-04-22T12:10:46.764Z,36.60
2023-04-22T12:13:21.660Z,36.86
2023-04-22T12:15:49.337Z,36.31
2023-04-22T12:18:16.217Z,36.34
2023-04-22T12:20:43.104Z,35.43
2023-04-22T12:23:14.702Z,35.65
2023-04-22T12:25:42.235Z,35.20
2023-04-22T12:28:09.127Z,34.85
2023-04-22T12:30:36.094Z,34.61
2023-04-22T12:33:03.080Z,33.86
2023-04-22T12:35:29.900Z,33.74
2023-04-22T12:37:56.739Z,34.36
2023-04-22T12:40:23.857Z,34.77
2023-04-22T12:42:50.711Z,34.98
2023-04-22T12:45:17.631Z,35.01
2023-04-22T12:47:45.451Z,35.69
